createdAt,value
2022-10-29T00:00:04.604Z,101951.03
2022-10-29T00:02:35.325Z,101937.91
2022-10-29T00:05:02.240Z,101941.59
2022-10-29T00:07:29.123Z,101937.28
2022-10-29T00:09:56.041Z,101936.53
2022-10-29T00:12:22.879Z,101935.53
2022-10-29T00:14:49.835Z,101937.97
2022-10-29T00:17:16.675Z,101939.84
2022-10-29T00:19:43.535Z,101931.13
2022-10-29T00:22:10.401Z,101932.59
2022-10-29T00:24:37.263Z,101929.00
2022-10-29T00:27:04.242Z,101931.56
2022-10-29T00:29:31.175Z,101936.50
2022-10-29T00:31:58.204Z,101922.22
2022-10-29T00:34:25.198Z,101928.66
2022-10-29T00:36:52.079Z,101931.78
2022-10-29T00:39:19.040Z,101920.81
2022-10-29T00:41:46.025Z,101925.25
2022-10-29T00:44:15.621Z,101931.78
2022-10-29T00:46:46.609Z,101921.88
2022-10-29T00:49:15.472Z,101926.56
2022-10-29T00:51:43.975Z,101918.88
2022-10-29T00:54:13.304Z,101917.53
2022-10-29T00:56:49.006Z,101918.31
2022-10-29T00:59:17.384Z,101918.28
2022-10-29T01:01:46.946Z,101914.84
2022-10-29T01:04:14.097Z,101909.72
2022-10-29T01:06:47.276Z,101902.50
2022-10-29T01:09:14.388Z,101903.38
2022-10-29T01:11:44.046Z,101903.53
2022-10-29T01:14:42.674Z,101901.44
2022-10-29T01:17:23.572Z,101898.13
2022-10-29T01:20:09.107Z,101893.75
2022-10-29T01:23:20.182Z,101890.16
2022-10-29T01:26:11.365Z,101887.63
2022-10-29T01:28:53.019Z,101887.56
2022-10-29T01:31:49.158Z,101894.72
2022-10-29T01:34:22.143Z,101889.16
2022-10-29T01:36:58.593Z,101885.59
2022-10-29T01:39:49.895Z,101878.94
2022-10-29T01:42:19.466Z,101881.91
2022-10-29T01:45:12.265Z,101883.97
2022-10-29T01:47:44.652Z,101875.19
2022-10-29T01:50:16.322Z,101880.38
2022-10-29T01:52:44.425Z,101874.31
2022-10-29T01:55:11.268Z,101864.25
2022-10-29T01:57:39.439Z,101859.19
2022-10-29T02:00:13.049Z,101868.97
2022-10-29T02:03:07.902Z,101864.47
2022-10-29T02:06:20.832Z,101861.34
2022-10-29T02:09:05.380Z,101859.28
2022-10-29T02:11:54.718Z,101863.50
2022-10-29T02:14:30.154Z,101859.06
2022-10-29T02:16:58.392Z,101854.28
2022-10-29T02:19:31.112Z,101865.13
2022-10-29T02:21:58.312Z,101858.13
2022-10-29T02:24:25.872Z,101859.75
2022-10-29T02:26:53.248Z,101856.13
2022-10-29T02:29:20.296Z,101858.56
2022-10-29T02:31:47.157Z,101860.78
2022-10-29T02:34:14.157Z,101854.06
2022-10-29T02:36:40.995Z,101851.38
2022-10-29T02:39:07.908Z,101849.22
2022-10-29T02:41:34.736Z,101847.84
2022-10-29T02:44:01.752Z,101845.97
2022-10-29T02:46:30.329Z,101845.03
2022-10-29T02:48:57.329Z,101845.75
2022-10-29T02:51:24.186Z,101839.97
2022-10-29T02:53:51.154Z,101848.78
2022-10-29T02:56:18.025Z,101844.75
2022-10-29T02:58:44.866Z,101850.34
2022-10-29T03:01:11.869Z,101841.56
2022-10-29T03:03:38.835Z,101840.28
2022-10-29T03:06:13.071Z,101837.00
2022-10-29T03:08:40.139Z,101840.88
2022-10-29T03:11:07.057Z,101844.44
2022-10-29T03:13:34.000Z,101843.44
2022-10-29T03:16:00.952Z,101838.78
2022-10-29T03:18:27.934Z,101832.75
2022-10-29T03:20:54.761Z,101825.66
2022-10-29T03:23:22.355Z,101830.38
2022-10-29T03:25:55.897Z,101827.97
2022-10-29T03:28:25.283Z,101830.47
2022-10-29T03:30:52.317Z,101831.94
2022-10-29T03:33:19.225Z,101835.56
2022-10-29T03:35:46.258Z,101834.59
2022-10-29T03:38:13.143Z,101830.25
2022-10-29T03:40:39.963Z,101823.28
2022-10-29T03:43:06.815Z,101825.09
2022-10-29T03:45:33.751Z,101816.34
2022-10-29T03:48:00.599Z,101819.16
2022-10-29T03:50:27.448Z,101823.16
2022-10-29T03:52:54.323Z,101827.47
2022-10-29T03:55:21.151Z,101825.63
2022-10-29T03:57:48.017Z,101824.06
2022-10-29T04:00:15.506Z,101823.19
2022-10-29T04:02:42.855Z,101824.09
2022-10-29T04:05:09.763Z,101823.19
2022-10-29T04:07:36.684Z,101827.75
2022-10-29T04:10:04.726Z,101821.50
2022-10-29T04:12:31.580Z,101833.59
2022-10-29T04:14:58.508Z,101827.16
2022-10-29T04:17:25.477Z,101827.66
2022-10-29T04:19:52.380Z,101836.66
2022-10-29T04:30:43.820Z,101833.13
2022-10-29T04:33:10.755Z,101831.75
2022-10-29T04:35:37.599Z,101837.94
2022-10-29T04:38:11.838Z,101837.94
2022-10-29T04:40:39.091Z,101836.97
2022-10-29T04:43:06.042Z,101833.97
2022-10-29T04:45:33.043Z,101839.41
2022-10-29T04:48:04.653Z,101833.72
2022-10-29T04:50:32.745Z,101833.91
2022-10-29T04:53:00.888Z,101834.75
2022-10-29T04:55:28.649Z,101836.91
2022-10-29T04:57:55.832Z,101839.72
2022-10-29T05:00:23.788Z,101839.91
2022-10-29T05:02:52.020Z,101842.84
2022-10-29T05:05:20.523Z,101843.63
2022-10-29T05:07:47.718Z,101841.25
2022-10-29T05:10:15.426Z,101849.63
2022-10-29T05:12:42.312Z,101856.84
2022-10-29T05:15:09.528Z,101856.84
2022-10-29T05:17:39.253Z,101848.06
2022-10-29T05:20:06.716Z,101855.66
2022-10-29T05:22:33.580Z,101852.72
2022-10-29T05:25:00.412Z,101857.16
2022-10-29T05:27:27.236Z,101867.41
2022-10-29T05:29:54.282Z,101863.09
2022-10-29T05:32:21.205Z,101863.72
2022-10-29T05:34:48.083Z,101865.81
2022-10-29T05:37:14.979Z,101865.00
2022-10-29T05:39:41.876Z,101864.47
2022-10-29T05:42:08.757Z,101870.88
2022-10-29T05:44:35.589Z,101881.50
2022-10-29T05:47:02.475Z,101881.38
2022-10-29T05:49:29.333Z,101870.59
2022-10-29T05:51:56.195Z,101875.03
2022-10-29T05:54:23.150Z,101875.66
2022-10-29T05:56:50.075Z,101880.53
2022-10-29T05:59:16.973Z,101877.16
2022-10-29T06:01:44.058Z,101882.03
2022-10-29T06:04:11.088Z,101887.88
2022-10-29T06:06:38.945Z,101880.00
2022-10-29T06:09:06.016Z,101884.72
2022-10-29T06:11:32.900Z,101892.88
2022-10-29T06:13:59.773Z,101888.78
2022-10-29T06:16:26.628Z,101882.25
2022-10-29T06:18:53.634Z,101879.22
2022-10-29T06:21:20.479Z,101892.16
2022-10-29T06:23:47.351Z,101891.41
2022-10-29T06:26:14.264Z,101898.31
2022-10-29T06:28:41.168Z,101894.63
2022-10-29T06:31:08.017Z,101894.50
2022-10-29T06:33:35.087Z,101899.00
2022-10-29T06:36:01.942Z,101897.94
2022-10-29T06:38:28.913Z,101903.72
2022-10-29T06:40:55.980Z,101896.34
2022-10-29T06:43:22.975Z,101902.31
2022-10-29T06:45:50.262Z,101906.56
2022-10-29T06:48:21.705Z,101900.88
2022-10-29T06:50:50.243Z,101903.91
2022-10-29T06:53:17.640Z,101896.56
2022-10-29T06:55:44.598Z,101906.50
2022-10-29T06:58:14.263Z,101910.28
2022-10-29T07:00:42.547Z,101916.41
2022-10-29T07:03:13.351Z,101905.47
2022-10-29T07:05:40.263Z,101906.00
2022-10-29T07:08:07.217Z,101911.94
2022-10-29T07:10:34.461Z,101914.91
2022-10-29T07:13:01.720Z,101914.88
2022-10-29T07:15:30.785Z,101913.09
2022-10-29T07:18:00.593Z,101906.31
2022-10-29T07:20:29.779Z,101906.09
2022-10-29T07:22:59.429Z,101908.31
2022-10-29T07:25:26.737Z,101911.72
2022-10-29T07:27:54.009Z,101912.19
2022-10-29T07:30:21.638Z,101917.88
2022-10-29T07:32:48.553Z,101905.78
2022-10-29T07:35:15.526Z,101901.34
2022-10-29T07:37:42.376Z,101903.25
2022-10-29T07:40:10.002Z,101898.88
2022-10-29T07:42:36.893Z,101898.81
2022-10-29T07:45:04.061Z,101904.94
2022-10-29T07:47:30.927Z,101898.41
2022-10-29T07:49:57.751Z,101900.16
2022-10-29T07:52:24.667Z,101891.44
2022-10-29T07:54:51.496Z,101895.19
2022-10-29T07:57:18.370Z,101897.88
2022-10-29T07:59:46.927Z,101900.81
2022-10-29T08:02:13.818Z,101901.41
2022-10-29T08:04:40.723Z,101895.63
2022-10-29T08:07:07.726Z,101896.59
2022-10-29T08:09:34.589Z,101893.38
2022-10-29T08:12:01.666Z,101898.63
2022-10-29T08:14:28.511Z,101899.75
2022-10-29T08:16:55.337Z,101902.63
2022-10-29T08:19:22.921Z,101894.25
2022-10-29T08:21:49.802Z,101893.47
2022-10-29T08:24:16.722Z,101893.44
2022-10-29T08:26:43.682Z,101892.31
2022-10-29T08:29:10.522Z,101877.50
2022-10-29T08:31:37.361Z,101877.06
2022-10-29T08:34:08.499Z,101875.91
2022-10-29T08:36:37.731Z,101872.41
2022-10-29T08:39:04.682Z,101861.38
2022-10-29T08:42:00.751Z,101864.78
2022-10-29T08:44:45.687Z,101868.50
2022-10-29T08:47:23.524Z,101862.13
2022-10-29T08:49:59.343Z,101869.03
2022-10-29T08:52:34.259Z,101861.56
2022-10-29T08:55:18.921Z,101856.03
2022-10-29T08:57:50.353Z,101847.41
2022-10-29T09:00:23.376Z,101845.84
2022-10-29T09:02:58.950Z,101850.25
2022-10-29T09:05:32.415Z,101843.44
2022-10-29T09:08:02.577Z,101842.44
2022-10-29T09:10:51.466Z,101838.75
2022-10-29T09:13:21.866Z,101838.28
2022-10-29T09:16:12.648Z,101828.63
2022-10-29T09:18:57.141Z,101825.81
2022-10-29T09:21:39.876Z,101827.97
2022-10-29T09:24:12.807Z,101833.22
2022-10-29T09:27:11.840Z,101829.69
2022-10-29T09:30:01.819Z,101820.88
2022-10-29T09:32:38.660Z,101824.69
2022-10-29T09:35:17.041Z,101810.19
2022-10-29T09:37:52.572Z,101813.19
2022-10-29T09:40:36.109Z,101815.53
2022-10-29T09:43:21.091Z,101810.84
2022-10-29T09:46:13.752Z,101804.25
2022-10-29T09:49:15.743Z,101800.19
2022-10-29T09:52:06.107Z,101796.88
2022-10-29T09:54:34.067Z,101805.25
2022-10-29T09:57:04.871Z,101797.19
2022-10-29T09:59:42.555Z,101787.53
2022-10-29T10:02:30.073Z,101787.88
2022-10-29T10:05:21.546Z,101780.56
2022-10-29T10:08:04.341Z,101775.19
2022-10-29T10:10:32.162Z,101781.63
2022-10-29T10:13:04.445Z,101767.88
2022-10-29T10:15:35.121Z,101765.53
2022-10-29T10:18:15.653Z,101768.19
2022-10-29T10:20:45.680Z,101757.78
2022-10-29T10:23:44.244Z,101749.22
2022-10-29T10:26:31.840Z,101742.44
2022-10-29T10:29:21.336Z,101743.03
2022-10-29T10:31:55.164Z,101743.22
2022-10-29T10:34:24.597Z,101735.22
2022-10-29T10:37:07.414Z,101730.97
2022-10-29T10:39:48.712Z,101734.50
2022-10-29T10:42:39.574Z,101723.97
2022-10-29T10:45:35.109Z,101727.34
2022-10-29T10:48:02.819Z,101714.03
2022-10-29T10:50:32.980Z,101713.16
2022-10-29T10:53:21.102Z,101712.91
2022-10-29T10:55:53.441Z,101714.88
2022-10-29T10:58:23.939Z,101697.16
2022-10-29T11:01:06.526Z,101702.09
2022-10-29T11:03:48.848Z,101700.47
2022-10-29T11:06:19.073Z,101695.25
2022-10-29T11:08:54.065Z,101692.00
2022-10-29T11:11:27.583Z,101682.63
2022-10-29T11:14:00.943Z,101684.94
2022-10-29T11:16:53.326Z,101680.47
2022-10-29T11:19:26.794Z,101674.63
2022-10-29T11:22:23.178Z,101675.78
2022-10-29T11:24:50.009Z,101680.84
2022-10-29T11:27:32.737Z,101681.50
2022-10-29T11:30:05.853Z,101671.94
2022-10-29T11:32:45.269Z,101666.28
2022-10-29T11:35:18.062Z,101660.44
2022-10-29T11:38:01.310Z,101664.94
2022-10-29T11:41:04.953Z,101657.16
2022-10-29T11:43:33.855Z,101651.31
2022-10-29T11:46:21.046Z,101654.00
2022-10-29T11:48:56.895Z,101654.94
2022-10-29T11:51:52.013Z,101643.50
2022-10-29T11:54:39.170Z,101644.78
2022-10-29T11:57:17.807Z,101646.69
2022-10-29T12:00:02.929Z,101647.25
2022-10-29T12:03:11.654Z,101650.63
2022-10-29T12:05:51.196Z,101638.53
2022-10-29T12:08:42.858Z,101631.84
2022-10-29T12:11:21.081Z,101630.34
2022-10-29T12:14:16.015Z,101628.09
2022-10-29T12:17:04.251Z,101618.19
2022-10-29T12:19:43.302Z,101621.16
2022-10-29T12:22:18.148Z,101618.31
2022-10-29T12:24:50.856Z,101615.84
2022-10-29T12:27:40.204Z,101611.34
2022-10-29T12:30:10.686Z,101615.34
2022-10-29T12:32:52.675Z,101605.88
2022-10-29T12:35:49.149Z,101604.16
2022-10-29T12:38:23.579Z,101604.66
2022-10-29T12:41:00.872Z,101594.44
2022-10-29T12:43:31.627Z,101593.19
2022-10-29T12:46:19.548Z,101606.13
2022-10-29T12:49:15.292Z,101597.88
2022-10-29T12:51:59.902Z,101599.78
2022-10-29T12:54:47.644Z,101596.97
2022-10-29T12:57:14.577Z,101591.31
2022-10-29T12:59:43.089Z,101583.75
2022-10-29T13:02:22.683Z,101579.34
2022-10-29T13:05:09.886Z,101566.59
2022-10-29T13:07:45.703Z,101569.41
2022-10-29T13:10:25.230Z,101571.44
2022-10-29T13:13:12.299Z,101572.19
2022-10-29T13:16:03.073Z,101577.75
2022-10-29T13:18:56.638Z,101571.78
2022-10-29T13:22:14.473Z,101565.47
2022-10-29T13:24:41.576Z,101564.91
2022-10-29T13:27:17.606Z,101563.88
2022-10-29T13:30:11.345Z,101567.16
2022-10-29T13:32:39.289Z,101564.25
2022-10-29T13:35:26.146Z,101567.78
2022-10-29T13:38:09.409Z,101567.19
2022-10-29T13:40:40.237Z,101566.44
2022-10-29T13:43:17.425Z,101568.81
2022-10-29T13:46:20.996Z,101563.19
2022-10-29T13:48:50.270Z,101558.06
2022-10-29T13:51:24.726Z,101557.66
2022-10-29T13:53:54.695Z,101563.22
2022-10-29T13:56:37.994Z,101559.34
2022-10-29T13:59:13.648Z,101555.16
2022-10-29T14:01:48.770Z,101553.34
2022-10-29T14:04:34.243Z,101552.56
2022-10-29T14:07:06.518Z,101554.34
2022-10-29T14:09:49.544Z,101541.94
2022-10-29T14:12:22.530Z,101548.25
2022-10-29T14:15:14.560Z,101549.16
2022-10-29T14:17:42.146Z,101550.91
2022-10-29T14:20:24.800Z,101550.91
2022-10-29T14:22:51.861Z,101554.56
2022-10-29T14:25:24.943Z,101552.38
2022-10-29T14:28:10.483Z,101546.84
2022-10-29T14:30:37.515Z,101556.72
2022-10-29T14:33:27.733Z,101556.78
2022-10-29T14:36:07.115Z,101557.56
2022-10-29T14:38:41.308Z,101557.91
2022-10-29T14:41:09.260Z,101560.75
2022-10-29T14:43:36.787Z,101555.66
2022-10-29T14:46:30.924Z,101554.72
2022-10-29T14:49:03.230Z,101556.66
2022-10-29T14:51:47.862Z,101562.44
2022-10-29T14:54:22.715Z,101560.69
2022-10-29T14:56:56.078Z,101568.66
2022-10-29T14:59:29.167Z,101561.88
2022-10-29T15:02:05.733Z,101556.47
2022-10-29T15:04:56.461Z,101561.72
2022-10-29T15:07:23.690Z,101560.97
2022-10-29T15:10:02.446Z,101560.03
2022-10-29T15:12:38.117Z,101553.09
2022-10-29T15:15:23.406Z,101570.16
2022-10-29T15:18:00.093Z,101569.13
2022-10-29T15:20:57.911Z,101565.47
2022-10-29T15:23:29.548Z,101567.13
2022-10-29T15:26:05.705Z,101566.34
2022-10-29T15:28:40.031Z,101574.53
2022-10-29T15:31:07.887Z,101580.72
2022-10-29T15:33:37.304Z,101580.00
2022-10-29T15:36:05.799Z,101578.28
2022-10-29T15:38:35.388Z,101589.72
2022-10-29T15:41:08.124Z,101587.13
2022-10-29T15:43:48.865Z,101588.81
2022-10-29T15:46:22.630Z,101581.63
2022-10-29T15:48:49.612Z,101588.69
2022-10-29T15:51:16.929Z,101597.56
2022-10-29T15:53:43.835Z,101592.31
2022-10-29T15:56:13.313Z,101597.59
2022-10-29T15:58:41.027Z,101593.91
2022-10-29T16:01:08.753Z,101589.34
2022-10-29T16:03:39.408Z,101593.59
2022-10-29T16:06:07.652Z,101590.75
2022-10-29T16:08:44.627Z,101594.28
2022-10-29T16:11:20.172Z,101593.31
2022-10-29T16:13:51.843Z,101589.84
2022-10-29T16:16:24.189Z,101593.34
2022-10-29T16:18:51.568Z,101600.34
2022-10-29T16:21:26.535Z,101601.31
2022-10-29T16:23:54.124Z,101600.28
2022-10-29T16:26:25.579Z,101595.03
2022-10-29T16:28:53.443Z,101600.47
2022-10-29T16:31:28.746Z,101598.66
2022-10-29T16:33:57.551Z,101604.03
2022-10-29T16:36:25.052Z,101602.22
2022-10-29T16:38:51.923Z,101610.16
2022-10-29T16:41:20.548Z,101599.28
2022-10-29T16:43:48.259Z,101604.28
2022-10-29T16:46:15.498Z,101613.47
2022-10-29T16:48:42.466Z,101610.16
2022-10-29T16:51:09.498Z,101612.56
2022-10-29T16:53:36.447Z,101614.19
2022-10-29T16:56:03.955Z,101612.19
2022-10-29T16:58:31.106Z,101605.06
2022-10-29T17:01:10.619Z,101605.97
2022-10-29T17:03:39.216Z,101612.06
2022-10-29T17:06:08.501Z,101610.31
2022-10-29T17:08:36.560Z,101604.38
2022-10-29T17:11:06.133Z,101611.16
2022-10-29T17:13:34.340Z,101613.03
2022-10-29T17:16:01.358Z,101612.19
2022-10-29T17:18:28.248Z,101600.50
2022-10-29T17:20:59.322Z,101609.47
2022-10-29T17:23:26.919Z,101613.09
2022-10-29T17:25:58.070Z,101611.31
2022-10-29T17:28:26.559Z,101611.41
2022-10-29T17:30:53.883Z,101612.38
2022-10-29T17:33:21.000Z,101617.66
2022-10-29T17:35:47.958Z,101618.75
2022-10-29T17:38:14.849Z,101604.66
2022-10-29T17:40:44.428Z,101602.91
2022-10-29T17:43:11.368Z,101598.28
2022-10-29T17:45:38.408Z,101591.03
2022-10-29T17:48:05.497Z,101600.63
2022-10-29T17:50:32.442Z,101589.13
2022-10-29T17:52:59.512Z,101593.38
2022-10-29T17:55:26.417Z,101592.56
2022-10-29T17:57:53.336Z,101595.38
2022-10-29T18:00:20.441Z,101604.31
2022-10-29T18:02:53.384Z,101596.63
2022-10-29T18:05:20.402Z,101589.63
2022-10-29T18:07:47.287Z,101590.59
2022-10-29T18:10:14.303Z,101588.69
2022-10-29T18:12:41.157Z,101594.81
2022-10-29T18:15:08.786Z,101587.75
2022-10-29T18:17:36.676Z,101597.53
2022-10-29T18:20:04.657Z,101588.84
2022-10-29T18:22:31.507Z,101588.84
2022-10-29T18:24:58.705Z,101601.31
2022-10-29T18:27:25.880Z,101606.53
2022-10-29T18:29:52.872Z,101594.31
2022-10-29T18:32:20.116Z,101591.75
2022-10-29T18:34:47.045Z,101587.22
2022-10-29T18:37:13.988Z,101599.56
2022-10-29T18:39:40.989Z,101589.78
2022-10-29T18:42:07.968Z,101590.66
2022-10-29T18:44:35.078Z,101585.38
2022-10-29T18:47:01.928Z,101583.69
2022-10-29T18:49:28.892Z,101580.19
2022-10-29T18:51:55.763Z,101578.47
2022-10-29T18:54:22.727Z,101581.19
2022-10-29T18:56:49.693Z,101583.78
2022-10-29T18:59:16.627Z,101582.09
2022-10-29T19:01:43.637Z,101584.84
2022-10-29T19:04:14.665Z,101586.56
2022-10-29T19:06:41.651Z,101583.03
2022-10-29T19:09:10.856Z,101579.47
2022-10-29T19:11:38.079Z,101577.69
2022-10-29T19:14:07.826Z,101577.78
2022-10-29T19:16:34.999Z,101575.09
2022-10-29T19:21:35.505Z,101566.16
2022-10-29T19:24:02.968Z,101563.53
2022-10-29T19:26:32.375Z,101559.09
2022-10-29T19:29:01.200Z,101560.97
2022-10-29T19:31:29.883Z,101566.25
2022-10-29T19:34:01.856Z,101569.66
2022-10-29T19:36:30.112Z,101568.63
2022-10-29T19:38:57.433Z,101563.38
2022-10-29T19:41:24.859Z,101572.22
2022-10-29T19:43:51.800Z,101561.53
2022-10-29T19:46:24.629Z,101560.91
2022-10-29T19:48:53.691Z,101560.16
2022-10-29T19:51:21.922Z,101552.09
2022-10-29T19:53:51.499Z,101561.72
2022-10-29T19:56:19.882Z,101570.53
2022-10-29T19:58:47.098Z,101560.94
2022-10-29T20:01:16.627Z,101562.81
2022-10-29T20:03:44.728Z,101568.81
2022-10-29T20:06:12.255Z,101566.13
2022-10-29T20:08:39.457Z,101568.78
2022-10-29T20:11:07.103Z,101568.72
2022-10-29T20:13:34.131Z,101567.88
2022-10-29T20:16:10.473Z,101567.03
2022-10-29T20:18:38.449Z,101570.63
2022-10-29T20:23:38.242Z,101567.97
2022-10-29T20:26:06.237Z,101563.56
2022-10-29T20:28:33.690Z,101561.91
2022-10-29T20:31:17.148Z,101569.03
2022-10-29T20:34:04.268Z,101561.09
2022-10-29T20:36:32.447Z,101560.94
2022-10-29T20:38:59.915Z,101559.22
2022-10-29T20:41:27.520Z,101556.63
2022-10-29T20:43:56.944Z,101560.00
2022-10-29T20:46:24.644Z,101555.75
2022-10-29T20:48:51.562Z,101563.75
2022-10-29T20:51:18.435Z,101558.41
2022-10-29T20:53:45.449Z,101554.84
2022-10-29T20:56:15.935Z,101545.16
2022-10-29T20:58:44.220Z,101552.16
2022-10-29T21:01:13.329Z,101546.84
2022-10-29T21:03:40.336Z,101541.59
2022-10-29T21:06:15.680Z,101540.84
2022-10-29T21:08:43.952Z,101537.28
2022-10-29T21:11:12.715Z,101541.59
2022-10-29T21:13:40.064Z,101545.91
2022-10-29T21:16:10.768Z,101538.91
2022-10-29T21:18:41.357Z,101545.97
2022-10-29T21:21:09.289Z,101534.47
2022-10-29T21:23:40.167Z,101537.09
2022-10-29T21:26:10.968Z,101533.59
2022-10-29T21:28:37.920Z,101539.75
2022-10-29T21:31:05.180Z,101536.22
2022-10-29T21:33:32.105Z,101540.59
2022-10-29T21:35:59.491Z,101537.16
2022-10-29T21:38:27.751Z,101529.31
2022-10-29T21:40:54.988Z,101528.47
2022-10-29T21:43:22.144Z,101525.75
2022-10-29T21:45:50.801Z,101524.03
2022-10-29T21:48:18.169Z,101521.28
2022-10-29T21:50:45.068Z,101522.16
2022-10-29T21:53:12.116Z,101522.25
2022-10-29T21:55:39.455Z,101515.28
2022-10-29T21:58:07.661Z,101517.97
2022-10-29T22:00:34.684Z,101505.66
2022-10-29T22:03:04.455Z,101510.06
2022-10-29T22:05:31.921Z,101512.72
2022-10-29T22:07:59.334Z,101515.34
2022-10-29T22:10:26.610Z,101506.44
2022-10-29T22:12:53.454Z,101508.94
2022-10-29T22:15:20.343Z,101503.59
2022-10-29T22:17:47.321Z,101502.81
2022-10-29T22:20:14.240Z,101504.59
2022-10-29T22:22:41.207Z,101504.63
2022-10-29T22:25:08.468Z,101507.22
2022-10-29T22:27:35.491Z,101502.78
2022-10-29T22:30:02.632Z,101493.66
2022-10-29T22:32:30.046Z,101490.13
2022-10-29T22:34:57.048Z,101497.25
2022-10-29T22:37:24.012Z,101491.22
2022-10-29T22:39:50.833Z,101487.72
2022-10-29T22:42:17.827Z,101471.94
2022-10-29T22:44:44.829Z,101476.38
2022-10-29T22:47:11.655Z,101481.69
2022-10-29T22:49:38.510Z,101480.81
2022-10-29T22:52:05.368Z,101471.94
2022-10-29T22:54:32.255Z,101472.78
2022-10-29T22:56:59.123Z,101470.16
2022-10-29T22:59:26.022Z,101468.34
2022-10-29T23:01:53.048Z,101465.63
2022-10-29T23:04:20.057Z,101464.75
2022-10-29T23:06:47.934Z,101459.47
2022-10-29T23:09:14.852Z,101457.03
2022-10-29T23:11:41.708Z,101467.63
2022-10-29T23:14:08.612Z,101460.63
2022-10-29T23:16:36.532Z,101463.81
2022-10-29T23:19:05.607Z,101456.69
2022-10-29T23:21:32.991Z,101453.25
2022-10-29T23:24:00.181Z,101453.28
2022-10-29T23:26:27.652Z,101448.09
2022-10-29T23:28:54.739Z,101443.75
2022-10-29T23:31:24.470Z,101441.91
2022-10-29T23:33:53.944Z,101442.75
2022-10-29T23:36:22.599Z,101444.38
2022-10-29T23:38:55.047Z,101438.09
2022-10-29T23:41:22.055Z,101442.59
2022-10-29T23:43:49.001Z,101432.19
2022-10-29T23:46:15.938Z,101431.34
2022-10-29T23:48:42.914Z,101435.78
2022-10-29T23:51:09.899Z,101436.59
2022-10-29T23:53:36.795Z,101435.72
2022-10-29T23:56:03.944Z,101430.47
2022-10-29T23:58:30.814Z,101427.06
